createdAt,value
2017-02-13T02:10:51.395Z,0
2017-02-13T03:26:21.967Z,0
2017-02-13T03:42:19.864Z,0
2017-02-13T03:48:51.678Z,0
2017-02-13T03:51:34.464Z,0
2017-02-13T03:52:14.998Z,0
2017-02-13T03:52:55.539Z,0
2017-02-13T03:56:33.041Z,0
2017-02-13T03:57:13.608Z,0
2017-02-13T03:59:49.384Z,0
2017-02-13T04:00:29.929Z,0
2017-02-13T04:09:45.103Z,0
2017-02-13T04:10:25.657Z,0
2017-02-13T04:11:06.185Z,0
2017-02-13T04:11:46.746Z,0
2017-02-13T04:14:11.866Z,0
2017-02-13T04:14:52.416Z,0
2017-02-13T04:39:01.372Z,0
2017-02-13T04:39:41.866Z,0
2017-02-13T04:40:22.570Z,0
2017-02-13T04:41:03.143Z,0
2017-02-13T04:41:44.063Z,0
2017-02-13T04:42:24.599Z,0
2017-02-13T04:43:05.088Z,0
2017-02-13T04:43:46.745Z,0
2017-02-13T04:44:27.330Z,0
2017-02-13T04:45:07.876Z,0
2017-02-13T05:15:29.382Z,0
2017-02-13T05:16:09.889Z,0
2017-02-13T05:16:50.419Z,0
2017-02-13T05:17:30.946Z,0
2017-02-13T05:18:11.481Z,0
2017-02-13T05:31:08.938Z,0
2017-02-13T05:31:49.454Z,0
2017-02-13T05:32:29.981Z,0
2017-02-13T05:33:10.507Z,0
2017-02-13T05:33:51.028Z,0
2017-02-13T05:34:31.574Z,0
2017-02-13T05:36:45.784Z,0
2017-02-13T05:37:26.273Z,0
2017-02-13T05:38:08.380Z,0
2017-02-13T05:38:50.584Z,0
2017-02-13T05:39:31.155Z,0
2017-02-13T05:40:11.614Z,0
2017-02-13T05:40:52.136Z,0
2017-02-13T05:41:32.665Z,0
2017-02-13T05:42:13.191Z,0
2017-02-13T05:42:53.722Z,0
2017-02-13T05:43:34.213Z,0
2017-02-13T05:44:16.625Z,0
2017-02-13T05:45:00.889Z,0
2017-02-13T05:45:54.735Z,0
2017-02-13T05:48:09.879Z,0
2017-02-13T05:48:50.419Z,0
2017-02-13T05:49:30.943Z,0
2017-02-13T05:50:11.485Z,0
2017-02-13T05:50:52.009Z,0
2017-02-13T05:51:32.521Z,0
2017-02-13T05:52:13.067Z,0
2017-02-13T05:52:53.615Z,0
2017-02-13T05:53:34.113Z,0
2017-02-13T05:54:14.641Z,0
2017-02-13T05:54:55.169Z,0
2017-02-13T05:55:35.674Z,0
2017-02-13T05:56:16.199Z,0
2017-02-13T05:56:56.678Z,0
2017-02-13T05:57:37.191Z,0
2017-02-13T05:58:17.762Z,0
2017-02-13T05:58:58.293Z,0
2017-02-13T05:59:38.809Z,0
2017-02-13T06:00:21.961Z,0
2017-02-13T06:01:02.484Z,0
2017-02-13T06:01:43.017Z,0
2017-02-13T06:02:23.550Z,0
2017-02-13T06:03:04.067Z,0
2017-02-13T06:03:44.589Z,0
2017-02-13T06:04:25.125Z,0
2017-02-13T06:05:05.619Z,0
2017-02-13T06:05:46.138Z,0
2017-02-13T06:06:26.696Z,0
2017-02-13T06:07:07.213Z,0
2017-02-13T06:07:47.760Z,0
2017-02-13T06:08:28.284Z,0
2017-02-13T06:09:08.798Z,0
2017-02-13T06:09:49.333Z,0
2017-02-13T06:10:29.868Z,0
2017-02-13T06:11:10.390Z,0
2017-02-13T06:11:50.917Z,0
2017-02-13T06:12:31.437Z,0
2017-02-13T06:13:12.051Z,0
2017-02-13T06:13:52.558Z,0
2017-02-13T06:14:36.905Z,0
2017-02-13T06:15:19.391Z,0
2017-02-13T06:15:59.903Z,0
2017-02-13T06:16:40.452Z,0
2017-02-13T06:17:20.944Z,0
2017-02-13T06:18:01.476Z,0
2017-02-13T06:18:42.023Z,0
2017-02-13T06:19:22.562Z,0
2017-02-13T06:20:03.072Z,0
2017-02-13T06:20:43.601Z,0
2017-02-13T06:21:24.130Z,0
2017-02-13T06:22:04.663Z,0
2017-02-13T06:22:45.209Z,0
2017-02-13T06:23:25.723Z,0
2017-02-13T06:24:06.254Z,0
2017-02-13T06:24:46.819Z,0
2017-02-13T06:25:27.339Z,0
2017-02-13T06:26:07.884Z,0
2017-02-13T06:26:48.418Z,0
2017-02-13T06:27:28.944Z,0
2017-02-13T06:28:09.469Z,0
2017-02-13T06:28:49.986Z,0
2017-02-13T06:29:30.535Z,0
2017-02-13T06:30:11.073Z,0
2017-02-13T06:30:51.598Z,0
2017-02-13T06:31:32.120Z,0
2017-02-13T06:32:12.660Z,0
2017-02-13T06:32:53.252Z,0
2017-02-13T06:33:33.774Z,0
2017-02-13T06:34:14.291Z,0
2017-02-13T06:34:54.873Z,0
2017-02-13T06:35:35.402Z,0
2017-02-13T06:36:15.942Z,0
2017-02-13T06:36:56.424Z,0
2017-02-13T06:37:36.909Z,0
2017-02-13T06:38:17.410Z,0
2017-02-13T06:38:57.956Z,0
2017-02-13T06:39:38.442Z,0
2017-02-13T06:40:18.940Z,0
2017-02-13T06:40:59.422Z,0
2017-02-13T06:41:39.905Z,0
2017-02-13T06:42:20.416Z,0
2017-02-13T06:43:00.902Z,0
2017-02-13T06:43:41.393Z,0
2017-02-13T06:44:21.871Z,0
2017-02-13T06:45:02.342Z,0
2017-02-13T06:45:42.879Z,0
2017-02-13T06:46:23.428Z,0
2017-02-13T06:47:03.943Z,0
2017-02-13T06:47:44.464Z,0
2017-02-13T06:48:24.981Z,0
2017-02-13T06:49:05.493Z,0
2017-02-13T06:49:46.042Z,0
2017-02-13T06:50:26.614Z,0
2017-02-13T06:51:07.141Z,0
2017-02-13T06:51:47.683Z,0
2017-02-13T06:52:28.216Z,0
2017-02-13T06:53:08.726Z,0
2017-02-13T06:53:49.252Z,0
2017-02-13T06:54:29.786Z,0
2017-02-13T06:55:10.334Z,0
2017-02-13T06:55:50.820Z,0
2017-02-13T06:56:31.373Z,0
2017-02-13T06:57:11.839Z,0
2017-02-13T06:57:52.339Z,0
2017-02-13T06:58:32.876Z,5
2017-02-13T06:59:13.428Z,5
2017-02-13T06:59:53.975Z,5
2017-02-13T07:00:34.435Z,5
2017-02-13T07:01:14.929Z,5
2017-02-13T07:01:55.393Z,5
2017-02-13T07:02:35.890Z,5
2017-02-13T07:03:16.353Z,5
2017-02-13T07:03:56.837Z,5
2017-02-13T07:04:37.326Z,5
2017-02-13T07:05:17.805Z,5
2017-02-13T07:05:58.284Z,5
2017-02-13T07:06:38.791Z,5
2017-02-13T07:07:19.317Z,5
2017-02-13T07:07:59.852Z,5
2017-02-13T07:08:40.377Z,5
2017-02-13T07:09:20.851Z,5
2017-02-13T07:10:01.356Z,5
2017-02-13T07:10:41.884Z,5
2017-02-13T07:11:22.419Z,5
2017-02-13T07:12:02.930Z,5
2017-02-13T07:12:43.448Z,10
2017-02-13T07:13:23.990Z,10
2017-02-13T07:14:04.531Z,10
2017-02-13T07:14:45.085Z,10
2017-02-13T07:15:25.601Z,10
2017-02-13T07:16:06.109Z,10
2017-02-13T07:16:47.191Z,10
2017-02-13T07:17:27.803Z,10
2017-02-13T07:18:08.329Z,10
2017-02-13T07:18:48.887Z,10
2017-02-13T07:19:29.468Z,10
2017-02-13T07:20:10.005Z,10
2017-02-13T07:20:50.529Z,10
2017-02-13T07:21:31.069Z,10
2017-02-13T07:22:11.653Z,15
2017-02-13T07:22:52.113Z,15
2017-02-13T07:23:32.577Z,15
2017-02-13T07:24:13.270Z,15
2017-02-13T07:24:53.759Z,15
2017-02-13T07:25:34.284Z,15
2017-02-13T07:26:14.771Z,15
2017-02-13T07:26:55.246Z,15
2017-02-13T07:27:35.714Z,20
2017-02-13T07:28:16.209Z,20
2017-02-13T07:28:56.680Z,20
2017-02-13T07:29:37.203Z,20
2017-02-13T07:30:17.754Z,20
2017-02-13T07:30:58.300Z,20
2017-02-13T07:31:38.896Z,20
2017-02-13T07:32:19.331Z,25
2017-02-13T07:32:59.822Z,25
2017-02-13T07:33:40.298Z,25
2017-02-13T07:34:20.774Z,20
2017-02-13T07:35:01.286Z,20
2017-02-13T07:35:41.745Z,25
2017-02-13T07:36:22.225Z,30
2017-02-13T07:37:02.739Z,30
2017-02-13T07:37:43.229Z,40
2017-02-13T07:38:23.670Z,40
2017-02-13T07:39:04.155Z,40
2017-02-13T07:39:44.708Z,40
2017-02-13T07:40:25.163Z,35
2017-02-13T07:41:05.654Z,40
2017-02-13T07:41:46.217Z,45
2017-02-13T07:42:26.699Z,45
2017-02-13T07:43:07.192Z,40
2017-02-13T07:43:47.680Z,35
2017-02-13T07:44:28.173Z,35
2017-02-13T07:45:08.644Z,35
2017-02-13T07:45:49.199Z,35
2017-02-13T07:46:29.682Z,40
2017-02-13T07:47:10.245Z,40
2017-02-13T07:47:50.756Z,35
2017-02-13T07:48:31.221Z,35
2017-02-13T07:49:11.695Z,35
2017-02-13T07:49:52.223Z,40
2017-02-13T07:50:32.698Z,35
2017-02-13T07:51:13.164Z,40
2017-02-13T07:51:53.639Z,40
2017-02-13T07:52:34.185Z,40
2017-02-13T07:53:14.654Z,40
2017-02-13T07:53:55.235Z,45
2017-02-13T07:54:40.241Z,45
2017-02-13T07:55:20.745Z,45
2017-02-13T07:56:01.272Z,50
2017-02-13T07:56:41.819Z,55
2017-02-13T07:57:22.366Z,50
2017-02-13T07:58:02.898Z,50
2017-02-13T07:58:43.456Z,55
2017-02-13T07:59:23.979Z,60
2017-02-13T08:00:04.500Z,60
2017-02-13T08:00:45.049Z,60
2017-02-13T08:01:25.609Z,65
2017-02-13T08:02:06.139Z,60
2017-02-13T08:02:46.657Z,70
2017-02-13T08:03:27.200Z,75
2017-02-13T08:04:07.748Z,65
2017-02-13T08:04:48.254Z,60
2017-02-13T08:05:28.775Z,65
2017-02-13T08:06:09.310Z,70
2017-02-13T08:06:49.892Z,70
2017-02-13T08:07:30.327Z,75
2017-02-13T08:08:10.809Z,70
2017-02-13T08:08:51.307Z,65
2017-02-13T08:09:31.857Z,60
2017-02-13T08:10:12.396Z,65
2017-02-13T08:10:52.907Z,65
2017-02-13T08:11:33.450Z,65
2017-02-13T08:12:13.984Z,70
2017-02-13T08:12:54.536Z,65
2017-02-13T08:13:35.064Z,60
2017-02-13T08:14:15.543Z,65
2017-02-13T08:14:56.023Z,65
2017-02-13T08:15:36.499Z,70
2017-02-13T08:16:17.065Z,65
2017-02-13T08:16:57.607Z,65
2017-02-13T08:17:38.103Z,70
2017-02-13T08:18:18.635Z,75
2017-02-13T08:18:59.170Z,70
2017-02-13T08:19:39.706Z,70
2017-02-13T08:20:20.181Z,80
2017-02-13T08:21:00.731Z,85
2017-02-13T08:21:41.212Z,80
2017-02-13T08:22:21.703Z,90
2017-02-13T08:23:02.182Z,85
2017-02-13T08:23:42.711Z,90
2017-02-13T08:24:23.263Z,90
2017-02-13T08:25:03.807Z,95
2017-02-13T08:25:44.304Z,100
2017-02-13T08:26:24.811Z,105
2017-02-13T08:27:05.340Z,100
2017-02-13T08:27:45.884Z,100
2017-02-13T08:28:26.433Z,90
2017-02-13T08:29:06.942Z,90
2017-02-13T08:29:47.460Z,100
2017-02-13T08:30:28.005Z,105
2017-02-13T08:31:08.529Z,105
2017-02-13T08:31:49.050Z,105
2017-02-13T08:32:29.568Z,100
2017-02-13T08:33:10.113Z,110
2017-02-13T08:33:50.678Z,125
2017-02-13T08:34:31.170Z,120
2017-02-13T08:35:11.625Z,120
2017-02-13T08:35:52.129Z,145
2017-02-13T08:36:32.587Z,145
2017-02-13T08:37:13.073Z,140
2017-02-13T08:37:55.258Z,150
2017-02-13T08:38:35.753Z,160
2017-02-13T08:39:16.240Z,160
2017-02-13T08:39:56.710Z,170
2017-02-13T08:40:37.200Z,185
2017-02-13T08:41:17.720Z,175
2017-02-13T08:41:58.215Z,170
2017-02-13T08:42:38.704Z,180
2017-02-13T08:43:19.227Z,185
2017-02-13T08:43:59.749Z,165
2017-02-13T08:44:40.277Z,175
2017-02-13T08:45:20.804Z,170
2017-02-13T08:46:01.332Z,160
2017-02-13T08:46:41.844Z,170
2017-02-13T08:47:22.386Z,165
2017-02-13T08:48:02.896Z,170
2017-02-13T08:48:43.446Z,180
2017-02-13T08:49:23.947Z,180
2017-02-13T08:50:04.496Z,165
2017-02-13T08:50:44.995Z,165
2017-02-13T08:51:25.534Z,180
2017-02-13T08:52:06.051Z,170
2017-02-13T08:52:46.587Z,155
2017-02-13T08:53:27.148Z,170
2017-02-13T08:54:07.683Z,180
2017-02-13T08:54:48.221Z,175
2017-02-13T08:55:28.747Z,170
2017-02-13T08:56:09.278Z,175
2017-02-13T08:56:49.825Z,175
2017-02-13T08:57:30.279Z,190
2017-02-13T08:58:10.765Z,205
2017-02-13T08:58:51.253Z,190
2017-02-13T08:59:31.764Z,180
2017-02-13T09:00:12.284Z,215
2017-02-13T09:00:52.840Z,220
2017-02-13T09:01:33.367Z,220
2017-02-13T09:02:13.834Z,235
2017-02-13T09:02:54.348Z,360
2017-02-13T09:03:34.885Z,240
2017-02-13T09:04:15.390Z,335
2017-02-13T09:04:55.906Z,240
2017-02-13T09:05:36.428Z,255
2017-02-13T09:06:16.982Z,320
2017-02-13T09:06:57.532Z,390
2017-02-13T09:07:38.073Z,270
2017-02-13T09:08:18.559Z,250
2017-02-13T09:08:59.175Z,230
2017-02-13T09:09:39.680Z,305
2017-02-13T09:10:20.161Z,275
2017-02-13T09:11:00.678Z,275
2017-02-13T09:11:41.127Z,260
2017-02-13T09:12:21.657Z,340
2017-02-13T09:13:02.165Z,275
2017-02-13T09:13:42.685Z,310
2017-02-13T09:14:23.207Z,330
2017-02-13T09:15:03.730Z,355
2017-02-13T09:15:44.267Z,275
2017-02-13T09:16:24.790Z,555
2017-02-13T09:17:05.317Z,570
2017-02-13T09:17:45.835Z,540
2017-02-13T09:18:26.362Z,720
2017-02-13T09:19:06.890Z,310
2017-02-13T09:19:47.424Z,320
2017-02-13T09:20:27.955Z,570
2017-02-13T09:21:08.492Z,305
2017-02-13T09:21:49.049Z,695
2017-02-13T09:22:29.542Z,735
2017-02-13T09:23:10.073Z,290
2017-02-13T09:23:50.621Z,735
2017-02-13T09:24:31.165Z,575
2017-02-13T09:25:11.700Z,375
2017-02-13T09:25:52.217Z,620
2017-02-13T09:26:32.768Z,295
2017-02-13T09:27:13.261Z,445
2017-02-13T09:27:53.806Z,535
2017-02-13T09:28:34.310Z,755
2017-02-13T09:29:14.832Z,840
2017-02-13T09:29:55.387Z,800
2017-02-13T09:30:35.960Z,840
2017-02-13T09:31:16.493Z,765
2017-02-13T09:31:57.019Z,715
2017-02-13T09:32:37.558Z,830
2017-02-13T09:33:18.071Z,810
2017-02-13T09:33:58.598Z,900
2017-02-13T09:34:39.124Z,575
2017-02-13T09:35:19.651Z,755
2017-02-13T09:36:00.194Z,760
2017-02-13T09:36:40.766Z,870
2017-02-13T09:37:21.299Z,895
2017-02-13T09:38:01.846Z,725
2017-02-13T09:38:42.396Z,920
2017-02-13T09:39:22.932Z,915
2017-02-13T09:40:03.424Z,925
2017-02-13T09:40:43.910Z,935
2017-02-13T09:41:24.421Z,890
2017-02-13T09:42:04.906Z,1055
2017-02-13T09:42:45.397Z,930
2017-02-13T09:43:25.936Z,980
2017-02-13T09:44:06.445Z,690
2017-02-13T09:44:46.920Z,1010
2017-02-13T09:45:27.439Z,1020
2017-02-13T09:46:07.918Z,1020
2017-02-13T09:46:48.419Z,970
2017-02-13T09:47:28.943Z,1065
2017-02-13T09:48:09.464Z,1105
2017-02-13T09:48:50.000Z,1110
2017-02-13T09:49:30.522Z,1050
2017-02-13T09:50:11.054Z,1010
2017-02-13T09:50:51.551Z,1080
2017-02-13T09:51:32.063Z,1055
2017-02-13T09:52:12.596Z,1025
2017-02-13T09:52:53.154Z,1120
2017-02-13T09:53:33.681Z,1130
2017-02-13T09:54:14.117Z,1105
2017-02-13T09:54:54.619Z,1150
2017-02-13T09:55:35.161Z,1210
2017-02-13T09:56:15.672Z,1175
2017-02-13T09:56:56.165Z,1195
2017-02-13T09:57:36.724Z,1185
2017-02-13T09:58:17.262Z,1190
2017-02-13T09:58:57.754Z,1230
2017-02-13T09:59:38.283Z,1190
2017-02-13T10:00:18.837Z,1185
2017-02-13T10:00:59.375Z,1225
2017-02-13T10:01:39.925Z,1210
2017-02-13T10:02:20.447Z,1275
2017-02-13T10:03:00.972Z,1245
2017-02-13T10:03:41.504Z,1220
2017-02-13T10:04:22.033Z,1250
2017-02-13T10:05:02.557Z,1265
2017-02-13T10:05:43.036Z,1295
2017-02-13T10:06:23.527Z,515
2017-02-13T10:07:04.037Z,1245
2017-02-13T10:07:44.575Z,1265
2017-02-13T10:08:25.119Z,1250
2017-02-13T10:09:05.660Z,1175
2017-02-13T10:09:46.208Z,1155
2017-02-13T10:10:26.766Z,1160
2017-02-13T10:11:07.228Z,1155
2017-02-13T10:11:47.721Z,1110
2017-02-13T10:12:28.258Z,1140
2017-02-13T10:13:08.814Z,1270
2017-02-13T10:13:49.326Z,1330
2017-02-13T10:14:29.806Z,1230
2017-02-13T10:15:10.292Z,1330
2017-02-13T10:15:50.789Z,1375
2017-02-13T10:16:31.304Z,1360
2017-02-13T10:17:11.797Z,1435
2017-02-13T10:17:52.321Z,1435
2017-02-13T10:18:32.781Z,1375
2017-02-13T10:19:13.269Z,1375
2017-02-13T10:19:53.802Z,1425
2017-02-13T10:20:34.335Z,1350
2017-02-13T10:21:14.848Z,1395
2017-02-13T10:21:55.363Z,1370
2017-02-13T10:22:36.014Z,1360
2017-02-13T10:23:16.551Z,1360
2017-02-13T10:23:57.079Z,1370
2017-02-13T10:24:37.604Z,1400
2017-02-13T10:25:18.122Z,1405
2017-02-13T10:25:58.660Z,1410
2017-02-13T10:26:39.234Z,1450
2017-02-13T10:27:19.769Z,1500
2017-02-13T10:28:00.326Z,1480
2017-02-13T10:28:40.867Z,1460
2017-02-13T10:29:21.403Z,1440
2017-02-13T10:30:01.967Z,1500
2017-02-13T10:30:42.500Z,1510
2017-02-13T10:31:23.047Z,1420
2017-02-13T10:32:03.589Z,1475
2017-02-13T10:32:44.128Z,1425
2017-02-13T10:33:24.664Z,1450
2017-02-13T10:34:05.216Z,1495
2017-02-13T10:34:45.772Z,1540
2017-02-13T10:35:26.333Z,1540
2017-02-13T10:36:06.833Z,1540
2017-02-13T10:36:47.335Z,1570
2017-02-13T10:37:27.825Z,1560
2017-02-13T10:38:08.320Z,1635
2017-02-13T10:38:48.812Z,1595
2017-02-13T10:39:29.317Z,1540
2017-02-13T10:40:09.790Z,1605
2017-02-13T10:40:50.332Z,1625
2017-02-13T10:41:30.809Z,1615
2017-02-13T10:42:11.344Z,1570
2017-02-13T10:42:51.844Z,1560
2017-02-13T10:43:32.339Z,1505
2017-02-13T10:44:12.889Z,1485
2017-02-13T10:44:53.440Z,1510
2017-02-13T10:45:34.016Z,1400
2017-02-13T10:46:14.575Z,1035
2017-02-13T10:46:55.113Z,690
2017-02-13T10:47:35.645Z,560
2017-02-13T10:48:16.113Z,550
2017-02-13T10:48:56.596Z,530
2017-02-13T10:49:37.082Z,530
2017-02-13T10:50:17.582Z,535
2017-02-13T10:50:58.090Z,535
2017-02-13T10:51:38.647Z,525
2017-02-13T10:52:21.001Z,520
2017-02-13T10:53:01.485Z,530
2017-02-13T10:53:42.022Z,525
2017-02-13T10:54:22.517Z,530
2017-02-13T10:55:03.022Z,520
2017-02-13T10:55:43.522Z,515
2017-02-13T10:56:24.010Z,520
2017-02-13T10:57:04.507Z,515
2017-02-13T10:57:45.026Z,515
2017-02-13T10:58:25.571Z,515
2017-02-13T10:59:06.106Z,515
2017-02-13T10:59:46.656Z,510
2017-02-13T11:00:27.152Z,515
2017-02-13T11:01:07.681Z,520
2017-02-13T11:01:48.215Z,525
2017-02-13T11:02:28.709Z,520
2017-02-13T11:03:09.221Z,515
2017-02-13T11:03:49.677Z,520
2017-02-13T11:04:30.182Z,525
2017-02-13T11:05:10.702Z,520
2017-02-13T11:05:51.213Z,520
2017-02-13T11:06:31.719Z,520
2017-02-13T11:07:12.233Z,520
2017-02-13T11:07:52.773Z,520
2017-02-13T11:08:33.233Z,515
2017-02-13T11:09:13.785Z,515
2017-02-13T11:09:54.284Z,525
2017-02-13T11:10:34.801Z,515
2017-02-13T11:11:15.280Z,510
2017-02-13T11:11:55.780Z,510
2017-02-13T11:12:36.328Z,510
2017-02-13T11:13:16.842Z,510
2017-02-13T11:13:57.332Z,510
2017-02-13T11:14:37.880Z,510
2017-02-13T11:15:18.337Z,505
2017-02-13T11:15:58.881Z,505
2017-02-13T11:16:39.351Z,505
2017-02-13T11:17:19.881Z,505
2017-02-13T11:18:00.437Z,505
2017-02-13T11:18:40.925Z,505
2017-02-13T11:19:21.441Z,500
2017-02-13T11:20:01.983Z,500
2017-02-13T11:20:42.549Z,495
2017-02-13T11:21:23.092Z,495
2017-02-13T11:22:03.648Z,495
2017-02-13T11:22:44.184Z,500
2017-02-13T11:23:24.729Z,495
2017-02-13T11:24:05.272Z,500
2017-02-13T11:24:45.803Z,495
2017-02-13T11:25:26.324Z,500
2017-02-13T11:26:06.868Z,490
2017-02-13T11:26:47.399Z,490
2017-02-13T11:27:27.958Z,500
2017-02-13T11:28:08.488Z,495
2017-02-13T11:28:49.029Z,500
2017-02-13T11:29:29.581Z,500
2017-02-13T11:30:10.131Z,495
2017-02-13T11:30:50.665Z,495
2017-02-13T11:31:31.224Z,500
2017-02-13T11:32:11.732Z,500
2017-02-13T11:32:52.275Z,495
2017-02-13T11:33:32.811Z,485
2017-02-13T11:34:13.342Z,490
2017-02-13T11:34:53.880Z,490
2017-02-13T11:35:34.422Z,490
2017-02-13T11:36:14.972Z,495
2017-02-13T11:36:55.491Z,495
2017-02-13T11:37:36.027Z,490
2017-02-13T11:38:16.569Z,490
2017-02-13T11:38:57.101Z,495
2017-02-13T11:39:37.647Z,490
2017-02-13T11:40:18.204Z,485
2017-02-13T11:40:58.786Z,485
2017-02-13T11:41:39.325Z,485
2017-02-13T11:42:19.854Z,480
2017-02-13T11:43:00.330Z,475
2017-02-13T11:43:40.845Z,470
2017-02-13T11:44:21.324Z,475
2017-02-13T11:45:01.817Z,480
2017-02-13T11:45:42.300Z,480
2017-02-13T11:46:22.813Z,475
2017-02-13T11:47:03.338Z,470
2017-02-13T11:47:43.879Z,465
2017-02-13T11:48:24.401Z,460
2017-02-13T11:49:04.955Z,455
2017-02-13T11:49:45.399Z,455
2017-02-13T11:50:25.886Z,450
2017-02-13T11:51:06.399Z,455
2017-02-13T11:51:46.917Z,450
2017-02-13T11:52:27.439Z,450
2017-02-13T11:53:07.950Z,440
2017-02-13T11:53:48.453Z,440
2017-02-13T11:54:28.979Z,440
2017-02-13T11:55:09.533Z,455
2017-02-13T11:55:50.058Z,460
2017-02-13T11:56:30.618Z,445
2017-02-13T11:57:11.108Z,435
2017-02-13T11:57:51.642Z,440
2017-02-13T11:58:32.181Z,535
2017-02-13T11:59:12.715Z,605
2017-02-13T11:59:53.260Z,560
2017-02-13T12:00:33.786Z,475
2017-02-13T12:01:14.296Z,445
2017-02-13T12:01:54.795Z,435
2017-02-13T12:02:35.325Z,420
2017-02-13T12:03:15.846Z,415
2017-02-13T12:03:56.384Z,420
2017-02-13T12:04:36.905Z,420
2017-02-13T12:05:17.446Z,415
2017-02-13T12:05:57.941Z,415
2017-02-13T12:06:38.478Z,415
2017-02-13T12:07:19.007Z,410
2017-02-13T12:07:59.519Z,410
2017-02-13T12:08:40.034Z,405
2017-02-13T12:09:20.560Z,405
2017-02-13T12:10:01.074Z,405
2017-02-13T12:10:41.587Z,400
2017-02-13T12:11:22.122Z,405
2017-02-13T12:12:02.681Z,400
2017-02-13T12:12:43.244Z,395
2017-02-13T12:13:23.780Z,390
2017-02-13T12:14:04.318Z,395
2017-02-13T12:14:44.865Z,390
2017-02-13T12:15:25.370Z,390
2017-02-13T12:16:05.894Z,390
2017-02-13T12:16:46.433Z,390
2017-02-13T12:17:27.856Z,380
2017-02-13T12:18:08.454Z,390
2017-02-13T12:18:51.051Z,385
2017-02-13T12:19:31.541Z,385
2017-02-13T12:20:14.948Z,385
2017-02-13T12:22:30.206Z,380
2017-02-13T12:23:10.733Z,380
2017-02-13T12:23:51.279Z,375
2017-02-13T12:24:31.826Z,375
2017-02-13T12:25:12.367Z,365
2017-02-13T12:25:52.912Z,370
2017-02-13T12:26:33.448Z,365
2017-02-13T12:27:13.952Z,365
2017-02-13T12:27:56.024Z,370
2017-02-13T12:28:36.547Z,360
2017-02-13T12:29:17.105Z,355
2017-02-13T12:29:57.661Z,355
2017-02-13T12:30:38.201Z,360
2017-02-13T12:31:18.708Z,355
2017-02-13T12:31:59.245Z,355
2017-02-13T12:32:39.800Z,350
2017-02-13T12:33:20.314Z,355
2017-02-13T12:34:00.845Z,355
2017-02-13T12:34:41.413Z,350
2017-02-13T12:35:21.952Z,350
2017-02-13T12:36:02.452Z,345
2017-02-13T12:36:42.971Z,350
2017-02-13T12:37:23.511Z,345
2017-02-13T12:38:04.063Z,350
2017-02-13T12:38:44.610Z,340
2017-02-13T12:39:25.107Z,340
2017-02-13T12:40:05.644Z,340
2017-02-13T12:40:46.189Z,335
2017-02-13T12:41:26.725Z,335
2017-02-13T12:42:07.273Z,340
2017-02-13T12:42:47.812Z,335
2017-02-13T12:43:28.341Z,335
2017-02-13T12:44:08.862Z,330
2017-02-13T12:45:31.425Z,335
2017-02-13T12:45:31.889Z,330
2017-02-13T12:46:10.463Z,325
2017-02-13T12:46:50.999Z,330
2017-02-13T12:47:31.520Z,325
2017-02-13T12:48:12.046Z,335
2017-02-13T12:48:52.577Z,325
2017-02-13T12:49:33.120Z,325
2017-02-13T12:50:13.673Z,320
2017-02-13T12:50:54.210Z,315
2017-02-13T12:51:34.753Z,330
2017-02-13T12:52:15.295Z,325
2017-02-13T12:52:55.810Z,320
2017-02-13T12:53:36.330Z,315
2017-02-13T12:54:16.857Z,315
2017-02-13T12:54:57.415Z,315
2017-02-13T12:55:37.983Z,315
2017-02-13T12:56:18.515Z,315
2017-02-13T12:56:59.075Z,315
2017-02-13T12:57:39.595Z,315
2017-02-13T12:58:20.119Z,315
2017-02-13T12:59:00.656Z,310
2017-02-13T12:59:41.188Z,315
2017-02-13T13:00:21.709Z,310
2017-02-13T13:01:02.237Z,315
2017-02-13T13:01:42.771Z,305
2017-02-13T13:02:23.301Z,310
2017-02-13T13:03:03.839Z,305
2017-02-13T13:03:44.365Z,310
2017-02-13T13:04:24.896Z,305
2017-02-13T13:05:05.416Z,305
2017-02-13T13:05:45.938Z,305
2017-02-13T13:06:26.461Z,305
2017-02-13T13:07:07.043Z,300
2017-02-13T13:07:47.576Z,295
2017-02-13T13:08:28.093Z,300
2017-02-13T13:09:10.532Z,295
2017-02-13T13:09:51.061Z,300
2017-02-13T13:10:31.614Z,300
2017-02-13T13:11:12.147Z,295
2017-02-13T13:11:52.670Z,290
2017-02-13T13:12:33.189Z,290
2017-02-13T13:13:13.738Z,290
2017-02-13T13:13:54.262Z,295
2017-02-13T13:14:34.830Z,290
2017-02-13T13:15:15.375Z,285
2017-02-13T13:15:55.896Z,285
2017-02-13T13:16:36.426Z,285
2017-02-13T13:17:16.965Z,285
2017-02-13T13:17:57.490Z,280
2017-02-13T13:18:38.015Z,285
2017-02-13T13:19:18.549Z,285
2017-02-13T13:19:59.082Z,280
2017-02-13T13:20:39.594Z,275
2017-02-13T13:21:20.166Z,275
2017-02-13T13:22:00.720Z,275
2017-02-13T13:22:41.275Z,275
2017-02-13T13:23:21.797Z,275
2017-02-13T13:24:02.320Z,275
2017-02-13T13:24:42.875Z,275
2017-02-13T13:25:23.428Z,265
2017-02-13T13:26:03.973Z,265
2017-02-13T13:26:44.504Z,270
2017-02-13T13:27:25.027Z,270
2017-02-13T13:28:05.567Z,265
2017-02-13T13:28:46.111Z,265
2017-02-13T13:29:26.673Z,255
2017-02-13T13:30:07.200Z,265
2017-02-13T13:30:49.524Z,265
2017-02-13T13:31:30.069Z,260
2017-02-13T13:32:10.622Z,260
2017-02-13T13:32:51.120Z,265
2017-02-13T13:33:31.679Z,260
2017-02-13T13:34:12.176Z,260
2017-02-13T13:34:52.712Z,260
2017-02-13T13:35:33.277Z,260
2017-02-13T13:36:13.784Z,260
2017-02-13T13:36:54.303Z,260
2017-02-13T13:37:34.821Z,260
2017-02-13T13:38:15.354Z,260
2017-02-13T13:38:55.892Z,260
2017-02-13T13:39:36.450Z,260
2017-02-13T13:40:16.998Z,260
2017-02-13T13:40:57.527Z,260
2017-02-13T13:41:38.087Z,260
2017-02-13T13:42:18.639Z,260
2017-02-13T13:42:59.206Z,255
2017-02-13T13:43:39.743Z,250
2017-02-13T13:44:20.255Z,255
2017-02-13T13:45:00.788Z,255
2017-02-13T13:45:41.318Z,250
2017-02-13T13:46:21.885Z,255
2017-02-13T13:47:03.429Z,255
2017-02-13T13:47:43.968Z,250
2017-02-13T13:48:24.475Z,245
2017-02-13T13:49:04.983Z,245
2017-02-13T13:49:45.522Z,250
2017-02-13T13:50:26.032Z,245
2017-02-13T13:51:06.551Z,245
2017-02-13T13:51:47.105Z,240
2017-02-13T13:52:27.647Z,240
2017-02-13T13:53:08.184Z,245
2017-02-13T13:53:48.707Z,245
2017-02-13T13:54:29.261Z,240
2017-02-13T13:55:09.775Z,240
2017-02-13T13:55:50.295Z,240
2017-02-13T13:56:30.830Z,240
2017-02-13T13:57:11.360Z,240
2017-02-13T13:57:51.881Z,240
2017-02-13T13:58:32.412Z,235
2017-02-13T13:59:12.937Z,235
2017-02-13T13:59:53.467Z,235
2017-02-13T14:00:34.023Z,235
2017-02-13T14:01:14.576Z,230
2017-02-13T14:01:55.151Z,230
2017-02-13T14:02:35.666Z,230
2017-02-13T14:03:16.230Z,230
2017-02-13T14:03:56.756Z,230
2017-02-13T14:04:37.276Z,225
2017-02-13T14:05:17.809Z,225
2017-02-13T14:05:58.383Z,225
2017-02-13T14:06:38.918Z,225
2017-02-13T14:07:19.444Z,220
2017-02-13T14:07:59.990Z,220
2017-02-13T14:08:40.490Z,220
2017-02-13T14:09:21.040Z,220
2017-02-13T14:11:51.316Z,235
2017-02-13T14:12:31.892Z,230
2017-02-13T14:13:12.423Z,215
2017-02-13T14:13:52.968Z,210
2017-02-13T14:14:33.518Z,210
2017-02-13T14:15:14.090Z,210
2017-02-13T14:15:54.600Z,210
2017-02-13T14:16:35.136Z,210
2017-02-13T14:17:15.673Z,210
2017-02-13T14:17:56.215Z,205
2017-02-13T14:18:36.761Z,205
2017-02-13T14:19:17.291Z,205
2017-02-13T14:19:57.831Z,205
2017-02-13T14:20:38.426Z,205
2017-02-13T14:21:18.965Z,205
2017-02-13T14:21:59.505Z,205
2017-02-13T14:22:40.089Z,205
2017-02-13T14:23:20.621Z,205
2017-02-13T14:24:01.163Z,205
2017-02-13T14:24:41.790Z,205
2017-02-13T14:25:22.314Z,205
2017-02-13T14:26:02.841Z,200
2017-02-13T14:26:43.381Z,200
2017-02-13T14:27:23.914Z,200
2017-02-13T14:28:04.453Z,200
2017-02-13T14:28:44.992Z,200
2017-02-13T14:29:25.515Z,195
2017-02-13T14:30:06.067Z,195
2017-02-13T14:30:46.669Z,195
2017-02-13T14:31:27.218Z,195
2017-02-13T14:33:45.980Z,190
2017-02-13T14:34:26.507Z,190
2017-02-13T14:35:07.087Z,190
2017-02-13T14:35:47.625Z,185
2017-02-13T14:36:28.155Z,185
2017-02-13T14:37:08.710Z,180
2017-02-13T14:37:50.336Z,180
2017-02-13T14:38:32.811Z,175
2017-02-13T14:45:32.041Z,165
2017-02-13T14:46:12.565Z,165
2017-02-13T14:46:53.326Z,160
2017-02-13T14:47:33.695Z,160
2017-02-13T14:48:14.210Z,160
2017-02-13T14:48:54.807Z,155
2017-02-13T14:49:35.333Z,155
2017-02-13T14:50:15.902Z,155
2017-02-13T15:01:29.372Z,130